Portada
METAR-TAF:

METAR-TAF

Aeroports :

Wasilla, Alaska, Estats Units d'Amèrica

latitud: 61-34-19N, longitud: 149-32-26W, altitud: 106 m

Observació

L'informe es va fer fa 17 minuts, a les 05:56 UTC
Vent 18 kt del Est/Nord-Est amb ràfegues de 27 kt
Temperatura -8°C
Humitat 41%
Pressió 1023 hPa
Visibilitat: 11.3 km
Cel clar
neu

METAR: PAWS 250556Z AUTO 06018G27KT 7SM -SN CLR M08/M19 A3020 RMK AO2 PK WND 06033/0529 SNB20 SLP236 P0000 60000 T10831194 11056 21083 58030 FZRANO

Hora: 21:13 (06:13 UTC)


TAF: manca

Observacions i pronòstics meteorològics de més de 4000 aeroports (METAR i TAF).

Les estacions disponibles són els punts grocs i vermells al mapa.

Posi el ratolí al punt desitjat per veure el nom de l'estació.

Feu clic per veure les observacions i els pronòstics meteorològics.

Per canviar el mapa: feu clic els botons verds amb una creu de color negre per apropar; al botó verd amb un guió per allunyar la imatge; o en les fletxes verdes per a mapes adjacents.


METAR-TAF: